Flight Track Log - Related Links

Times and Time Zones

All times are in EDT time to prevent confusion due to time zone crossing. See the KAP927 flight status page for this flight to view local times or setup timezone preferences in your user account.

Time Position Orientation Groundspeed Altitude Reporting Facility
EDT Latitude Longitude Course Direction KTS MPH feet Rate Location/Type
Fri 05:17:19 PM 44.4856 -75.3325 149° Southeast 156 180 4,500  Level Boston Center
Fri 05:18:19 PM 44.4550 -75.2961 140° Southeast 151 174 5,100 550 Climbing Boston Center
Fri 05:19:19 PM 44.4200 -75.2828 165° South 137 158 5,600 454 Climbing Boston Center
Fri 05:20:18 PM 44.3956 -75.2583 144° Southeast 137 158 6,000 500 Climbing Boston Center
Fri 05:21:19 PM 44.3589 -75.2247 147° Southeast 137 158 6,600 545 Climbing Boston Center
Fri 05:22:00 PM 44.4902 -75.2947 149° Southeast  Level Estimated
Fri 05:22:19 PM 44.3242 -75.1969 150° Southeast 137 158 7,100  Level Boston Center
Fri 05:23:30 PM 44.2914 -75.1722 152° Southeast 137 158 7,500 227 Climbing Boston Center
Fri 05:24:31 PM 44.2467 -75.1267 144° Southeast 142 163 7,600 50 Climbing Boston Center
Fri 05:25:31 PM 44.2058 -75.0900 147° Southeast 157 181 7,600  Level Boston Center
Fri 05:26:31 PM 44.1669 -75.0567 148° Southeast 164 189 7,600  Level Boston Center
Fri 05:27:31 PM 44.1281 -75.0231 148° Southeast 169 194 7,600 150 Level Boston Center
Fri 05:28:31 PM 44.0914 -74.9867 145° Southeast 162 186 7,900 350 Climbing Boston Center
Fri 05:29:31 PM 44.0544 -74.9564 149° Southeast 162 186 8,300 450 Climbing Boston Center
Fri 05:30:31 PM 44.0178 -74.9231 147° Southeast 162 186 8,800 450 Climbing Boston Center
Fri 05:31:31 PM 43.9811 -74.8869 145° Southeast 162 186 9,200 400 Climbing Boston Center
Fri 05:32:31 PM 43.9442 -74.8536 147° Southeast 162 186 9,600 200 Climbing Boston Center
Fri 05:33:31 PM 43.9011 -74.8172 149° Southeast 167 192 9,600  Level Boston Center
Fri 05:34:31 PM 43.8583 -74.7811 149° Southeast 172 198 9,600  Level Boston Center
Fri 05:35:30 PM 43.8256 -74.7508 146° Southeast 178 205 9,600  Level Boston Center
Fri 05:36:31 PM 43.7744 -74.7031 146° Southeast 178 205 9,600  Level Boston Center
Fri 05:37:31 PM 43.7333 -74.6669 148° Southeast 178 205 9,600  Level Boston Center
Fri 05:38:31 PM 43.6903 -74.6308 149° Southeast 178 205 9,600  Level Boston Center
Fri 05:39:31 PM 43.6494 -74.5922 146° Southeast 178 205 9,600  Level Boston Center
Fri 05:40:31 PM 43.6064 -74.5533 147° Southeast 178 205 9,600  Level Boston Center
Fri 05:41:31 PM 43.5653 -74.5175 148° Southeast 178 205 9,600  Level Boston Center
Fri 05:42:30 PM 43.5325 -74.4906 149° Southeast 178 205 9,600 -50 Level Boston Center
Fri 05:43:31 PM 43.4831 -74.4461 147° Southeast 178 205 9,500 -99 Descending Boston Center
Fri 05:44:31 PM 43.4400 -74.4103 149° Southeast 178 205 9,400 -300 Descending Boston Center
Fri 05:45:31 PM 43.3969 -74.3717 147° Southeast 178 205 8,900 -550 Descending Boston Center
Fri 05:46:31 PM 43.3475 -74.3331 150° Southeast 184 212 8,300 -617 Descending Boston Center
Fri 05:47:18 PM 43.3083 -74.3089 156° South 191 220 7,800 -550 Descending Boston Center
Fri 05:48:31 PM 43.2528 -74.2644 150° Southeast 189 217 7,200 -496 Descending Boston Center
Fri 05:49:31 PM 43.2078 -74.2206 145° Southeast 189 217 6,700 -450 Descending Boston Center
Fri 05:50:31 PM 43.1686 -74.1853 147° Southeast 189 217 6,300 -443 Descending Boston Center
Fri 05:51:33 PM 43.1192 -74.1411 147° Southeast 185 213 5,800 -488 Descending Boston Center
Fri 05:52:34 PM 43.0781 -74.1000 144° Southeast 184 212 5,300 -462 Descending Boston Center
Fri 05:53:43 PM 43.0328 -74.0592 147° Southeast 189 217 4,800 -512 Descending Boston Center
Fri 05:54:43 PM 42.9836 -74.0153 147° Southeast 189 217 4,200 -500 Descending Boston Center
Fri 05:55:43 PM 42.9442 -73.9886 154° Southeast 184 212 3,800 -450 Descending Boston Center
Fri 05:56:43 PM 42.8903 -73.9703 166° South 179 206 3,300 -318 Descending Boston Center
Fri 05:57:55 PM 42.8447 -73.9550 166° South 179 206 3,100 -91 Descending Boston Center
Fri 05:58:55 PM 42.7989 -73.9511 176° South 174 200 3,100  Level Boston Center
Fri 05:59:55 PM 42.7428 -73.9414 173° South 174 200 3,100 -390 Level Boston Center
Fri 06:00:58 PM 42.7142 -73.8897 127° Southeast 173 199 2,300 -532 Descending Boston Center
Fri 06:01:59 PM 42.6750 -73.8550 147° Southeast 163 188 2,000 -197 Descending Boston Center
Fri 06:03:00 PM 42.6569 -73.8064 117° Southeast 163 188 1,900 -375 Descending Boston Center
Fri 06:04:07 PM 42.7028 -73.8075 359° North 172 198 1,200 -627 Descending Boston Center
Fri 06:06:00 PM 42.7333 -73.8000 41° Northeast  Level FlightAware Approximate
Fri 06:13:00 PM 42.7491 -73.8020 41° Northeast  Level Estimated
Fri 06:14:00 PM 42.7491 -73.8020 41° Northeast  Level Estimated
Fri 06:15:00 PM 42.7491 -73.8020 41° Northeast  Level Estimated

Login

Don't have an account? Register now (free) for customized features, flight alerts, and more!